sensor_id;sensor_type;location;lat;lon;timestamp;pressure;altitude;pressure_sealevel;temperature;humidity
6387;BME280;3226;42.162;24.756;2023-08-06T00:01:54;98285.03;;;24.70;90.68
6387;BME280;3226;42.162;24.756;2023-08-06T00:04:22;98287.28;;;24.78;89.42
6387;BME280;3226;42.162;24.756;2023-08-06T00:06:51;98294.66;;;24.66;90.57
6387;BME280;3226;42.162;24.756;2023-08-06T00:09:19;98290.63;;;24.68;90.51
6387;BME280;3226;42.162;24.756;2023-08-06T00:11:47;98276.66;;;24.34;93.33
6387;BME280;3226;42.162;24.756;2023-08-06T00:14:16;98274.47;;;24.31;94.02
6387;BME280;3226;42.162;24.756;2023-08-06T00:16:44;98269.41;;;24.34;93.96
6387;BME280;3226;42.162;24.756;2023-08-06T00:19:12;98265.78;;;24.40;93.18
6387;BME280;3226;42.162;24.756;2023-08-06T00:21:41;98269.38;;;24.57;92.32
6387;BME280;3226;42.162;24.756;2023-08-06T00:24:10;98272.41;;;24.38;94.58
6387;BME280;3226;42.162;24.756;2023-08-06T00:26:38;98272.38;;;24.33;95.00
6387;BME280;3226;42.162;24.756;2023-08-06T00:29:06;98271.63;;;24.15;96.52
6387;BME280;3226;42.162;24.756;2023-08-06T00:31:34;98264.47;;;24.21;96.52
6387;BME280;3226;42.162;24.756;2023-08-06T00:34:02;98272.44;;;24.16;97.00
6387;BME280;3226;42.162;24.756;2023-08-06T00:36:30;98277.84;;;24.21;96.87
6387;BME280;3226;42.162;24.756;2023-08-06T00:38:58;98272.09;;;24.34;96.02
6387;BME280;3226;42.162;24.756;2023-08-06T00:41:27;98262.13;;;24.24;96.37
6387;BME280;3226;42.162;24.756;2023-08-06T00:43:55;98262.94;;;24.03;98.68
6387;BME280;3226;42.162;24.756;2023-08-06T00:46:23;98261.69;;;24.10;98.59
6387;BME280;3226;42.162;24.756;2023-08-06T00:48:51;98256.13;;;24.17;98.45
6387;BME280;3226;42.162;24.756;2023-08-06T00:51:20;98255.94;;;24.24;97.52
6387;BME280;3226;42.162;24.756;2023-08-06T00:53:49;98250.66;;;24.29;97.34
6387;BME280;3226;42.162;24.756;2023-08-06T00:56:17;98249.91;;;24.34;97.23
6387;BME280;3226;42.162;24.756;2023-08-06T00:58:48;98243.50;;;24.35;96.83
6387;BME280;3226;42.162;24.756;2023-08-06T01:01:16;98240.81;;;24.35;97.07
6387;BME280;3226;42.162;24.756;2023-08-06T01:03:46;98232.25;;;24.33;96.83
6387;BME280;3226;42.162;24.756;2023-08-06T01:06:19;98229.84;;;24.09;98.66
6387;BME280;3226;42.162;24.756;2023-08-06T01:08:53;98218.47;;;23.96;100.00
6387;BME280;3226;42.162;24.756;2023-08-06T01:11:28;98221.91;;;24.19;98.65
6387;BME280;3226;42.162;24.756;2023-08-06T01:14:13;98229.66;;;23.93;100.00
6387;BME280;3226;42.162;24.756;2023-08-06T01:16:43;98234.63;;;24.07;100.00
6387;BME280;3226;42.162;24.756;2023-08-06T01:19:16;98240.09;;;24.17;99.39
6387;BME280;3226;42.162;24.756;2023-08-06T01:21:46;98238.19;;;24.13;99.68
6387;BME280;3226;42.162;24.756;2023-08-06T01:24:14;98240.41;;;24.21;99.23
6387;BME280;3226;42.162;24.756;2023-08-06T01:26:53;98241.19;;;24.21;99.02
6387;BME280;3226;42.162;24.756;2023-08-06T01:29:25;98244.94;;;24.20;99.25
6387;BME280;3226;42.162;24.756;2023-08-06T01:31:54;98250.34;;;24.03;100.00
6387;BME280;3226;42.162;24.756;2023-08-06T01:34:25;98257.63;;;23.86;100.00
6387;BME280;3226;42.162;24.756;2023-08-06T01:36:56;98242.81;;;23.78;100.00
6387;BME280;3226;42.162;24.756;2023-08-06T01:39:25;98235.72;;;23.66;100.00
6387;BME280;3226;42.162;24.756;2023-08-06T01:41:53;98216.28;;;23.71;100.00
6387;BME280;3226;42.162;24.756;2023-08-06T01:44:21;98215.16;;;23.89;100.00
6387;BME280;3226;42.162;24.756;2023-08-06T01:46:49;98204.91;;;24.03;100.00
6387;BME280;3226;42.162;24.756;2023-08-06T01:49:17;98201.50;;;24.08;100.00
6387;BME280;3226;42.162;24.756;2023-08-06T01:51:45;98205.53;;;24.10;100.00
6387;BME280;3226;42.162;24.756;2023-08-06T01:54:14;98204.44;;;24.06;100.00
6387;BME280;3226;42.162;24.756;2023-08-06T01:56:42;98202.94;;;23.71;100.00
6387;BME280;3226;42.162;24.756;2023-08-06T01:59:10;98229.88;;;23.70;100.00
6387;BME280;3226;42.162;24.756;2023-08-06T02:01:38;98224.47;;;23.87;100.00
6387;BME280;3226;42.162;24.756;2023-08-06T02:04:06;98233.19;;;23.77;100.00
6387;BME280;3226;42.162;24.756;2023-08-06T02:06:34;98236.28;;;23.91;100.00
6387;BME280;3226;42.162;24.756;2023-08-06T02:09:02;98253.75;;;23.99;100.00
6387;BME280;3226;42.162;24.756;2023-08-06T02:11:31;98243.47;;;24.07;100.00
6387;BME280;3226;42.162;24.756;2023-08-06T02:13:59;98222.53;;;23.82;100.00
6387;BME280;3226;42.162;24.756;2023-08-06T02:16:27;98224.34;;;23.99;100.00
6387;BME280;3226;42.162;24.756;2023-08-06T02:18:55;98231.31;;;24.00;100.00
6387;BME280;3226;42.162;24.756;2023-08-06T02:21:23;98220.31;;;23.96;100.00
6387;BME280;3226;42.162;24.756;2023-08-06T02:23:51;98222.56;;;24.04;100.00
6387;BME280;3226;42.162;24.756;2023-08-06T02:26:19;98238.47;;;23.94;100.00
6387;BME280;3226;42.162;24.756;2023-08-06T02:28:49;98227.81;;;23.99;100.00
6387;BME280;3226;42.162;24.756;2023-08-06T02:31:17;98229.78;;;24.04;100.00
6387;BME280;3226;42.162;24.756;2023-08-06T02:33:44;98213.91;;;23.75;100.00
6387;BME280;3226;42.162;24.756;2023-08-06T02:36:12;98218.75;;;23.78;100.00
6387;BME280;3226;42.162;24.756;2023-08-06T02:38:40;98220.31;;;23.74;100.00
6387;BME280;3226;42.162;24.756;2023-08-06T02:41:08;98217.03;;;23.89;100.00
6387;BME280;3226;42.162;24.756;2023-08-06T02:43:36;98224.16;;;23.61;100.00
6387;BME280;3226;42.162;24.756;2023-08-06T02:46:06;98221.13;;;23.52;100.00
6387;BME280;3226;42.162;24.756;2023-08-06T02:48:34;98211.91;;;23.65;100.00
6387;BME280;3226;42.162;24.756;2023-08-06T02:51:02;98205.84;;;23.70;100.00
6387;BME280;3226;42.162;24.756;2023-08-06T02:53:30;98213.09;;;23.52;100.00
6387;BME280;3226;42.162;24.756;2023-08-06T02:55:58;98219.88;;;23.60;100.00
6387;BME280;3226;42.162;24.756;2023-08-06T02:58:26;98208.75;;;23.68;100.00
6387;BME280;3226;42.162;24.756;2023-08-06T03:01:01;98202.59;;;23.45;100.00
6387;BME280;3226;42.162;24.756;2023-08-06T03:03:31;98197.19;;;23.62;100.00
6387;BME280;3226;42.162;24.756;2023-08-06T03:06:00;98209.69;;;23.79;100.00
6387;BME280;3226;42.162;24.756;2023-08-06T03:08:28;98208.84;;;23.73;100.00
6387;BME280;3226;42.162;24.756;2023-08-06T03:10:56;98212.69;;;23.60;100.00
6387;BME280;3226;42.162;24.756;2023-08-06T03:13:24;98218.44;;;23.52;100.00
6387;BME280;3226;42.162;24.756;2023-08-06T03:15:53;98210.09;;;23.48;100.00
6387;BME280;3226;42.162;24.756;2023-08-06T03:18:21;98211.81;;;23.37;100.00
6387;BME280;3226;42.162;24.756;2023-08-06T03:20:51;98217.31;;;23.48;100.00
6387;BME280;3226;42.162;24.756;2023-08-06T03:23:19;98213.84;;;23.47;100.00
6387;BME280;3226;42.162;24.756;2023-08-06T03:25:47;98207.59;;;23.42;100.00
6387;BME280;3226;42.162;24.756;2023-08-06T03:28:15;98205.59;;;23.32;100.00
6387;BME280;3226;42.162;24.756;2023-08-06T03:30:43;98216.19;;;23.44;100.00
6387;BME280;3226;42.162;24.756;2023-08-06T03:33:11;98232.94;;;23.56;100.00
6387;BME280;3226;42.162;24.756;2023-08-06T03:35:39;98227.84;;;23.77;100.00
6387;BME280;3226;42.162;24.756;2023-08-06T03:38:08;98227.34;;;23.80;100.00
6387;BME280;3226;42.162;24.756;2023-08-06T03:40:36;98227.28;;;23.75;100.00
6387;BME280;3226;42.162;24.756;2023-08-06T03:43:04;98221.94;;;23.75;100.00
6387;BME280;3226;42.162;24.756;2023-08-06T03:45:32;98214.41;;;23.72;100.00
6387;BME280;3226;42.162;24.756;2023-08-06T03:48:00;98225.03;;;23.66;100.00
6387;BME280;3226;42.162;24.756;2023-08-06T03:50:28;98221.63;;;23.71;100.00
6387;BME280;3226;42.162;24.756;2023-08-06T03:52:56;98217.53;;;23.86;100.00
6387;BME280;3226;42.162;24.756;2023-08-06T03:55:26;98215.84;;;23.79;100.00
6387;BME280;3226;42.162;24.756;2023-08-06T03:57:54;98219.88;;;23.82;100.00
6387;BME280;3226;42.162;24.756;2023-08-06T04:00:22;98215.41;;;23.88;100.00
6387;BME280;3226;42.162;24.756;2023-08-06T04:02:50;98218.91;;;23.88;100.00
6387;BME280;3226;42.162;24.756;2023-08-06T04:05:18;98237.97;;;23.75;100.00
6387;BME280;3226;42.162;24.756;2023-08-06T04:07:46;98227.97;;;23.87;100.00
6387;BME280;3226;42.162;24.756;2023-08-06T04:10:14;98230.66;;;23.87;100.00
6387;BME280;3226;42.162;24.756;2023-08-06T04:12:43;98228.31;;;23.96;100.00
6387;BME280;3226;42.162;24.756;2023-08-06T04:15:11;98217.19;;;23.82;100.00
6387;BME280;3226;42.162;24.756;2023-08-06T04:17:39;98225.78;;;23.84;100.00
6387;BME280;3226;42.162;24.756;2023-08-06T04:20:08;98233.56;;;23.63;100.00
6387;BME280;3226;42.162;24.756;2023-08-06T04:22:36;98233.94;;;23.72;100.00
6387;BME280;3226;42.162;24.756;2023-08-06T04:25:05;98236.53;;;23.67;100.00
6387;BME280;3226;42.162;24.756;2023-08-06T04:27:33;98231.16;;;23.45;100.00
6387;BME280;3226;42.162;24.756;2023-08-06T04:30:03;98246.13;;;23.46;100.00
6387;BME280;3226;42.162;24.756;2023-08-06T04:32:34;98253.19;;;23.52;100.00
6387;BME280;3226;42.162;24.756;2023-08-06T04:35:02;98248.13;;;23.56;100.00
6387;BME280;3226;42.162;24.756;2023-08-06T04:37:30;98241.13;;;23.32;100.00
6387;BME280;3226;42.162;24.756;2023-08-06T04:39:58;98249.63;;;23.29;100.00
6387;BME280;3226;42.162;24.756;2023-08-06T04:42:26;98240.66;;;23.35;100.00
6387;BME280;3226;42.162;24.756;2023-08-06T04:44:54;98232.94;;;23.56;100.00
6387;BME280;3226;42.162;24.756;2023-08-06T04:47:24;98229.09;;;23.69;100.00
6387;BME280;3226;42.162;24.756;2023-08-06T04:49:52;98231.94;;;23.85;100.00
6387;BME280;3226;42.162;24.756;2023-08-06T04:52:20;98242.06;;;23.82;100.00
6387;BME280;3226;42.162;24.756;2023-08-06T04:54:48;98246.28;;;23.56;100.00
6387;BME280;3226;42.162;24.756;2023-08-06T04:57:16;98246.53;;;23.54;100.00
6387;BME280;3226;42.162;24.756;2023-08-06T04:59:44;98241.56;;;23.63;100.00
6387;BME280;3226;42.162;24.756;2023-08-06T05:02:12;98239.91;;;23.79;100.00
6387;BME280;3226;42.162;24.756;2023-08-06T05:04:41;98244.38;;;23.74;100.00
6387;BME280;3226;42.162;24.756;2023-08-06T05:07:10;98253.75;;;23.76;100.00
6387;BME280;3226;42.162;24.756;2023-08-06T05:09:38;98253.50;;;23.78;100.00
6387;BME280;3226;42.162;24.756;2023-08-06T05:12:07;98240.63;;;23.75;100.00
6387;BME280;3226;42.162;24.756;2023-08-06T05:14:35;98235.00;;;23.71;100.00
6387;BME280;3226;42.162;24.756;2023-08-06T05:17:03;98227.66;;;23.83;100.00
6387;BME280;3226;42.162;24.756;2023-08-06T05:19:31;98226.16;;;23.93;100.00
6387;BME280;3226;42.162;24.756;2023-08-06T05:22:01;98232.63;;;23.75;100.00
6387;BME280;3226;42.162;24.756;2023-08-06T05:24:29;98234.84;;;23.83;100.00
6387;BME280;3226;42.162;24.756;2023-08-06T05:26:57;98247.88;;;23.96;100.00
6387;BME280;3226;42.162;24.756;2023-08-06T05:29:25;98256.03;;;24.07;100.00
6387;BME280;3226;42.162;24.756;2023-08-06T05:31:53;98257.03;;;24.01;100.00
6387;BME280;3226;42.162;24.756;2023-08-06T05:34:22;98238.88;;;24.03;100.00
6387;BME280;3226;42.162;24.756;2023-08-06T05:36:50;98227.47;;;23.90;100.00
6387;BME280;3226;42.162;24.756;2023-08-06T05:39:20;98224.53;;;23.70;100.00
6387;BME280;3226;42.162;24.756;2023-08-06T05:41:48;98216.69;;;23.85;100.00
6387;BME280;3226;42.162;24.756;2023-08-06T05:44:17;98238.31;;;24.01;100.00
6387;BME280;3226;42.162;24.756;2023-08-06T05:46:45;98226.06;;;24.05;100.00
6387;BME280;3226;42.162;24.756;2023-08-06T05:49:13;98219.47;;;23.90;100.00
6387;BME280;3226;42.162;24.756;2023-08-06T05:51:41;98219.75;;;23.94;100.00
6387;BME280;3226;42.162;24.756;2023-08-06T05:54:09;98221.56;;;23.88;100.00
6387;BME280;3226;42.162;24.756;2023-08-06T05:56:39;98206.34;;;23.66;100.00
6387;BME280;3226;42.162;24.756;2023-08-06T05:59:07;98218.50;;;23.57;100.00
6387;BME280;3226;42.162;24.756;2023-08-06T06:01:35;98226.06;;;23.43;100.00
6387;BME280;3226;42.162;24.756;2023-08-06T06:04:03;98230.34;;;23.44;100.00
6387;BME280;3226;42.162;24.756;2023-08-06T06:06:31;98245.00;;;23.42;100.00
6387;BME280;3226;42.162;24.756;2023-08-06T06:08:59;98244.78;;;23.26;100.00
6387;BME280;3226;42.162;24.756;2023-08-06T06:11:27;98213.69;;;23.20;100.00
6387;BME280;3226;42.162;24.756;2023-08-06T06:13:56;98211.91;;;22.74;100.00
6387;BME280;3226;42.162;24.756;2023-08-06T06:16:24;98222.25;;;22.53;100.00
6387;BME280;3226;42.162;24.756;2023-08-06T06:18:52;98207.56;;;22.39;100.00
6387;BME280;3226;42.162;24.756;2023-08-06T06:21:21;98206.47;;;22.52;100.00
6387;BME280;3226;42.162;24.756;2023-08-06T06:23:49;98208.53;;;22.33;100.00
6387;BME280;3226;42.162;24.756;2023-08-06T06:26:18;98223.00;;;22.37;100.00
6387;BME280;3226;42.162;24.756;2023-08-06T06:28:46;98225.34;;;22.33;100.00
6387;BME280;3226;42.162;24.756;2023-08-06T06:31:15;98225.56;;;22.03;100.00
6387;BME280;3226;42.162;24.756;2023-08-06T06:33:43;98224.88;;;21.95;100.00
6387;BME280;3226;42.162;24.756;2023-08-06T06:36:11;98216.91;;;22.24;100.00
6387;BME280;3226;42.162;24.756;2023-08-06T06:38:39;98239.50;;;22.22;100.00
6387;BME280;3226;42.162;24.756;2023-08-06T06:41:07;98257.69;;;21.96;100.00
6387;BME280;3226;42.162;24.756;2023-08-06T06:43:35;98240.34;;;22.22;100.00
6387;BME280;3226;42.162;24.756;2023-08-06T06:46:04;98223.03;;;22.25;100.00
6387;BME280;3226;42.162;24.756;2023-08-06T06:48:33;98228.72;;;22.29;100.00
6387;BME280;3226;42.162;24.756;2023-08-06T06:51:02;98235.47;;;22.19;100.00
6387;BME280;3226;42.162;24.756;2023-08-06T06:53:30;98225.66;;;22.37;100.00
6387;BME280;3226;42.162;24.756;2023-08-06T06:56:02;98216.69;;;22.43;100.00
6387;BME280;3226;42.162;24.756;2023-08-06T06:58:31;98235.84;;;22.69;100.00
6387;BME280;3226;42.162;24.756;2023-08-06T07:00:59;98233.81;;;22.76;100.00
6387;BME280;3226;42.162;24.756;2023-08-06T07:03:27;98235.63;;;22.88;100.00
6387;BME280;3226;42.162;24.756;2023-08-06T07:05:58;98226.00;;;23.04;100.00
6387;BME280;3226;42.162;24.756;2023-08-06T07:08:27;98238.84;;;23.24;100.00
6387;BME280;3226;42.162;24.756;2023-08-06T07:11:00;98250.91;;;23.44;100.00
6387;BME280;3226;42.162;24.756;2023-08-06T07:13:29;98251.41;;;23.41;100.00
6387;BME280;3226;42.162;24.756;2023-08-06T07:15:57;98255.75;;;23.47;100.00
6387;BME280;3226;42.162;24.756;2023-08-06T07:18:25;98255.56;;;23.71;100.00
6387;BME280;3226;42.162;24.756;2023-08-06T07:20:54;98261.00;;;23.81;100.00
6387;BME280;3226;42.162;24.756;2023-08-06T07:23:24;98266.91;;;23.83;100.00
6387;BME280;3226;42.162;24.756;2023-08-06T07:25:53;98266.00;;;23.72;100.00
6387;BME280;3226;42.162;24.756;2023-08-06T07:28:21;98278.66;;;23.82;100.00
6387;BME280;3226;42.162;24.756;2023-08-06T07:30:49;98289.44;;;23.87;100.00
6387;BME280;3226;42.162;24.756;2023-08-06T07:33:17;98287.44;;;23.77;100.00
6387;BME280;3226;42.162;24.756;2023-08-06T07:35:45;98286.56;;;23.72;100.00
6387;BME280;3226;42.162;24.756;2023-08-06T07:38:13;98259.03;;;23.71;100.00
6387;BME280;3226;42.162;24.756;2023-08-06T07:40:42;98265.13;;;23.66;100.00
6387;BME280;3226;42.162;24.756;2023-08-06T07:43:10;98251.38;;;23.80;100.00
6387;BME280;3226;42.162;24.756;2023-08-06T07:45:38;98212.72;;;23.65;100.00
6387;BME280;3226;42.162;24.756;2023-08-06T07:48:06;98256.75;;;24.02;100.00
6387;BME280;3226;42.162;24.756;2023-08-06T07:50:34;98250.34;;;24.03;100.00
6387;BME280;3226;42.162;24.756;2023-08-06T07:53:02;98261.69;;;24.10;97.94
6387;BME280;3226;42.162;24.756;2023-08-06T07:55:30;98261.94;;;24.09;99.05
6387;BME280;3226;42.162;24.756;2023-08-06T07:57:59;98261.75;;;24.16;97.96
6387;BME280;3226;42.162;24.756;2023-08-06T08:00:27;98267.59;;;24.13;98.01
6387;BME280;3226;42.162;24.756;2023-08-06T08:02:55;98272.50;;;24.21;98.01
6387;BME280;3226;42.162;24.756;2023-08-06T08:05:23;98274.84;;;24.17;97.71
6387;BME280;3226;42.162;24.756;2023-08-06T08:07:51;98295.50;;;24.22;97.82
6387;BME280;3226;42.162;24.756;2023-08-06T08:10:19;98286.94;;;24.20;97.18
6387;BME280;3226;42.162;24.756;2023-08-06T08:12:48;98281.25;;;24.16;98.02
6387;BME280;3226;42.162;24.756;2023-08-06T08:15:17;98275.84;;;24.11;98.54
6387;BME280;3226;42.162;24.756;2023-08-06T08:17:45;98285.81;;;24.16;97.85
6387;BME280;3226;42.162;24.756;2023-08-06T08:20:16;98294.28;;;24.07;98.52
6387;BME280;3226;42.162;24.756;2023-08-06T08:22:44;98288.84;;;24.02;99.24
6387;BME280;3226;42.162;24.756;2023-08-06T08:25:12;98285.84;;;23.99;98.65
6387;BME280;3226;42.162;24.756;2023-08-06T08:27:40;98273.22;;;23.94;97.08
6387;BME280;3226;42.162;24.756;2023-08-06T08:30:08;98260.97;;;23.76;97.37
6387;BME280;3226;42.162;24.756;2023-08-06T08:32:38;98288.75;;;23.97;97.57
6387;BME280;3226;42.162;24.756;2023-08-06T08:35:06;98285.56;;;23.78;100.00
6387;BME280;3226;42.162;24.756;2023-08-06T08:37:35;98280.22;;;23.78;100.00
6387;BME280;3226;42.162;24.756;2023-08-06T08:40:04;98267.19;;;23.81;100.00
6387;BME280;3226;42.162;24.756;2023-08-06T08:42:32;98266.69;;;23.85;100.00
6387;BME280;3226;42.162;24.756;2023-08-06T08:45:01;98271.97;;;23.79;100.00
6387;BME280;3226;42.162;24.756;2023-08-06T08:47:30;98272.47;;;23.76;100.00
6387;BME280;3226;42.162;24.756;2023-08-06T08:50:01;98274.88;;;23.78;100.00
6387;BME280;3226;42.162;24.756;2023-08-06T08:52:31;98283.84;;;23.89;99.75
6387;BME280;3226;42.162;24.756;2023-08-06T08:55:01;98277.00;;;23.98;99.48
6387;BME280;3226;42.162;24.756;2023-08-06T08:57:29;98268.84;;;24.05;99.03
6387;BME280;3226;42.162;24.756;2023-08-06T08:59:57;98255.56;;;23.93;98.05
6387;BME280;3226;42.162;24.756;2023-08-06T09:02:28;98271.88;;;24.14;97.25
6387;BME280;3226;42.162;24.756;2023-08-06T09:04:58;98234.31;;;24.03;95.46
6387;BME280;3226;42.162;24.756;2023-08-06T09:07:32;98232.63;;;24.19;94.87
6387;BME280;3226;42.162;24.756;2023-08-06T09:10:03;98223.56;;;24.48;93.07
6387;BME280;3226;42.162;24.756;2023-08-06T09:12:32;98232.31;;;24.98;90.87
6387;BME280;3226;42.162;24.756;2023-08-06T09:15:00;98225.00;;;25.26;87.78
6387;BME280;3226;42.162;24.756;2023-08-06T09:17:30;98229.53;;;25.20;83.02
6387;BME280;3226;42.162;24.756;2023-08-06T09:19:58;98237.38;;;25.32;79.63
6387;BME280;3226;42.162;24.756;2023-08-06T09:22:35;98240.31;;;25.79;77.81
6387;BME280;3226;42.162;24.756;2023-08-06T09:25:03;98234.00;;;26.11;75.61
6387;BME280;3226;42.162;24.756;2023-08-06T09:27:36;98234.06;;;26.26;73.13
6387;BME280;3226;42.162;24.756;2023-08-06T09:30:06;98223.38;;;26.42;73.07
6387;BME280;3226;42.162;24.756;2023-08-06T09:32:47;98228.25;;;26.71;72.46
6387;BME280;3226;42.162;24.756;2023-08-06T09:35:18;98231.47;;;26.94;69.52
6387;BME280;3226;42.162;24.756;2023-08-06T09:37:47;98231.19;;;27.01;66.48
6387;BME280;3226;42.162;24.756;2023-08-06T09:40:26;98219.09;;;26.98;64.55
6387;BME280;3226;42.162;24.756;2023-08-06T09:42:55;98220.72;;;26.73;64.24
6387;BME280;3226;42.162;24.756;2023-08-06T09:45:23;98225.56;;;26.87;63.92
6387;BME280;3226;42.162;24.756;2023-08-06T09:47:55;98223.69;;;26.97;63.31
6387;BME280;3226;42.162;24.756;2023-08-06T09:50:28;98218.84;;;26.99;62.10
6387;BME280;3226;42.162;24.756;2023-08-06T09:52:57;98213.44;;;27.15;61.69
6387;BME280;3226;42.162;24.756;2023-08-06T09:55:26;98214.16;;;27.62;58.50
6387;BME280;3226;42.162;24.756;2023-08-06T09:57:55;98211.59;;;28.02;58.86
6387;BME280;3226;42.162;24.756;2023-08-06T10:00:24;98205.59;;;28.10;57.03
6387;BME280;3226;42.162;24.756;2023-08-06T10:02:53;98216.19;;;27.91;56.34
6387;BME280;3226;42.162;24.756;2023-08-06T10:05:23;98212.50;;;27.77;53.92
6387;BME280;3226;42.162;24.756;2023-08-06T10:07:52;98209.25;;;27.75;54.17
6387;BME280;3226;42.162;24.756;2023-08-06T10:10:25;98212.97;;;27.94;54.14
6387;BME280;3226;42.162;24.756;2023-08-06T10:12:56;98208.63;;;27.98;53.66
6387;BME280;3226;42.162;24.756;2023-08-06T10:15:30;98192.78;;;27.97;53.07
6387;BME280;3226;42.162;24.756;2023-08-06T10:18:00;98198.47;;;27.85;53.54
6387;BME280;3226;42.162;24.756;2023-08-06T10:20:33;98159.41;;;27.98;52.72
6387;BME280;3226;42.162;24.756;2023-08-06T10:23:02;98178.75;;;28.05;53.32
6387;BME280;3226;42.162;24.756;2023-08-06T10:25:32;98179.50;;;27.61;52.06
6387;BME280;3226;42.162;24.756;2023-08-06T10:28:07;98183.56;;;27.48;50.67
6387;BME280;3226;42.162;24.756;2023-08-06T10:30:42;98180.88;;;27.42;50.78
6387;BME280;3226;42.162;24.756;2023-08-06T10:33:11;98176.56;;;27.47;50.04
6387;BME280;3226;42.162;24.756;2023-08-06T10:35:41;98171.69;;;27.59;50.73
6387;BME280;3226;42.162;24.756;2023-08-06T10:38:12;98167.78;;;27.91;50.14
6387;BME280;3226;42.162;24.756;2023-08-06T10:40:48;98173.06;;;28.07;49.01
6387;BME280;3226;42.162;24.756;2023-08-06T10:43:25;98173.41;;;28.40;48.72
6387;BME280;3226;42.162;24.756;2023-08-06T10:45:55;98168.81;;;28.46;48.20
6387;BME280;3226;42.162;24.756;2023-08-06T10:48:30;98174.50;;;28.39;47.14
6387;BME280;3226;42.162;24.756;2023-08-06T10:51:00;98175.44;;;28.59;47.01
6387;BME280;3226;42.162;24.756;2023-08-06T10:53:29;98186.69;;;29.00;46.80
6387;BME280;3226;42.162;24.756;2023-08-06T10:56:01;98184.16;;;29.09;46.42
6387;BME280;3226;42.162;24.756;2023-08-06T10:58:33;98197.38;;;29.35;46.32
6387;BME280;3226;42.162;24.756;2023-08-06T11:01:01;98198.91;;;29.66;45.02
6387;BME280;3226;42.162;24.756;2023-08-06T11:03:29;98196.47;;;29.69;45.08
6387;BME280;3226;42.162;24.756;2023-08-06T11:05:57;98191.19;;;29.59;44.25
6387;BME280;3226;42.162;24.756;2023-08-06T11:08:26;98180.53;;;29.49;43.08
6387;BME280;3226;42.162;24.756;2023-08-06T11:10:54;98188.59;;;29.49;43.79
6387;BME280;3226;42.162;24.756;2023-08-06T11:13:31;98197.44;;;29.54;43.04
6387;BME280;3226;42.162;24.756;2023-08-06T11:15:59;98193.59;;;28.82;41.78
6387;BME280;3226;42.162;24.756;2023-08-06T11:18:28;98193.31;;;29.08;41.41
6387;BME280;3226;42.162;24.756;2023-08-06T11:20:58;98198.06;;;29.22;41.15
6387;BME280;3226;42.162;24.756;2023-08-06T11:23:27;98187.50;;;29.50;41.06
6387;BME280;3226;42.162;24.756;2023-08-06T11:25:56;98200.13;;;29.79;40.65
6387;BME280;3226;42.162;24.756;2023-08-06T11:28:24;98205.97;;;29.62;39.73
6387;BME280;3226;42.162;24.756;2023-08-06T11:30:54;98193.75;;;29.21;40.34
6387;BME280;3226;42.162;24.756;2023-08-06T11:33:24;98200.47;;;29.48;41.00
6387;BME280;3226;42.162;24.756;2023-08-06T11:35:55;98203.00;;;29.63;41.00
6387;BME280;3226;42.162;24.756;2023-08-06T11:38:24;98189.69;;;29.72;40.52
6387;BME280;3226;42.162;24.756;2023-08-06T11:40:52;98194.19;;;30.01;40.53
6387;BME280;3226;42.162;24.756;2023-08-06T11:43:21;98198.19;;;30.04;39.19
6387;BME280;3226;42.162;24.756;2023-08-06T11:45:49;98196.75;;;29.87;40.32
6387;BME280;3226;42.162;24.756;2023-08-06T11:48:20;98191.06;;;30.13;39.33
6387;BME280;3226;42.162;24.756;2023-08-06T11:50:48;98194.41;;;30.24;39.93
6387;BME280;3226;42.162;24.756;2023-08-06T11:53:16;98198.53;;;30.54;39.18
6387;BME280;3226;42.162;24.756;2023-08-06T11:55:44;98189.91;;;30.52;38.65
6387;BME280;3226;42.162;24.756;2023-08-06T11:58:12;98176.03;;;30.59;38.77
6387;BME280;3226;42.162;24.756;2023-08-06T12:00:42;98166.16;;;29.97;36.89
6387;BME280;3226;42.162;24.756;2023-08-06T12:03:10;98198.06;;;30.14;38.10
6387;BME280;3226;42.162;24.756;2023-08-06T12:05:39;98210.66;;;29.99;36.82
6387;BME280;3226;42.162;24.756;2023-08-06T12:08:09;98215.09;;;29.90;38.05
6387;BME280;3226;42.162;24.756;2023-08-06T12:10:37;98212.97;;;29.63;37.39
6387;BME280;3226;42.162;24.756;2023-08-06T12:13:05;98214.81;;;29.13;37.95
6387;BME280;3226;42.162;24.756;2023-08-06T12:15:33;98209.28;;;29.29;37.82
6387;BME280;3226;42.162;24.756;2023-08-06T12:18:00;98215.78;;;29.28;37.57
6387;BME280;3226;42.162;24.756;2023-08-06T12:20:29;98206.41;;;29.20;37.59
6387;BME280;3226;42.162;24.756;2023-08-06T12:22:58;98219.84;;;29.25;38.61
6387;BME280;3226;42.162;24.756;2023-08-06T12:25:26;98214.34;;;29.36;38.11
6387;BME280;3226;42.162;24.756;2023-08-06T12:27:55;98206.38;;;29.50;38.07
6387;BME280;3226;42.162;24.756;2023-08-06T12:30:24;98211.31;;;29.91;37.73
6387;BME280;3226;42.162;24.756;2023-08-06T12:32:52;98200.16;;;30.17;36.69
6387;BME280;3226;42.162;24.756;2023-08-06T12:35:20;98188.16;;;29.85;37.49
6387;BME280;3226;42.162;24.756;2023-08-06T12:37:48;98195.16;;;29.86;37.63
6387;BME280;3226;42.162;24.756;2023-08-06T12:40:19;98200.44;;;29.53;36.71
6387;BME280;3226;42.162;24.756;2023-08-06T12:43:01;98195.00;;;29.58;36.79
6387;BME280;3226;42.162;24.756;2023-08-06T12:45:29;98186.97;;;29.53;36.76
6387;BME280;3226;42.162;24.756;2023-08-06T12:47:57;98195.22;;;29.81;37.12
6387;BME280;3226;42.162;24.756;2023-08-06T12:50:25;98192.34;;;29.96;36.94
6387;BME280;3226;42.162;24.756;2023-08-06T12:52:53;98195.94;;;30.11;36.52
6387;BME280;3226;42.162;24.756;2023-08-06T12:55:23;98199.78;;;30.43;36.88
6387;BME280;3226;42.162;24.756;2023-08-06T12:57:51;98197.41;;;30.75;36.30
6387;BME280;3226;42.162;24.756;2023-08-06T13:00:24;98197.47;;;31.02;35.92
6387;BME280;3226;42.162;24.756;2023-08-06T13:02:52;98202.03;;;30.74;35.45
6387;BME280;3226;42.162;24.756;2023-08-06T13:05:21;98205.81;;;30.73;35.67
6387;BME280;3226;42.162;24.756;2023-08-06T13:07:49;98203.63;;;30.75;35.79
6387;BME280;3226;42.162;24.756;2023-08-06T13:10:17;98220.72;;;30.51;35.86
6387;BME280;3226;42.162;24.756;2023-08-06T13:12:47;98217.84;;;30.28;35.55
6387;BME280;3226;42.162;24.756;2023-08-06T13:15:15;98216.28;;;30.22;35.55